Date,TemperatureHighF,TemperatureAvgF,TemperatureLowF,DewpointHighF,DewpointAvgF,DewpointLowF,HumidityHigh,HumidityAvg,HumidityLow,PressureMaxIn,PressureMinIn,WindSpeedMaxMPH,WindSpeedAvgMPH,GustSpeedMaxMPH,PrecipitationSumIn
2013-1-1,20.5,7.9,-12.6,17.6,4.0,-17.2,91,84,77,30.15,29.74,9,3,10,0.00
2013-1-2,21.2,11.5,0.4,17.9,7.8,-3.8,89,85,80,30.24,29.73,10,3,12,0.00
2013-1-3,28.6,14.6,1.1,22.0,10.2,-2.9,88,82,74,30.24,29.76,13,6,14,0.00
2013-1-4,22.5,13.8,2.9,16.5,9.4,-2.0,88,82,77,30.10,29.84,8,3,8,0.00
2013-1-5,14.8,8.9,2.2,11.4,4.6,-2.0,87,82,73,30.11,30.03,6,2,7,0.00
2013-1-6,21.6,17.8,13.3,18.8,14.6,9.6,92,87,81,30.14,29.53,19,6,19,0.00
2013-1-7,34.2,28.3,18.5,29.4,24.0,15.6,93,84,74,29.77,29.44,21,6,21,0.00
2013-1-8,34.6,22.4,9.4,31.0,19.1,6.1,92,87,82,29.75,29.45,22,7,24,0.00
2013-1-9,27.7,23.5,18.5,23.8,19.2,14.9,92,84,71,30.10,29.55,32,10,32,0.00
2013-1-10,37.1,26.9,22.1,31.2,23.4,18.8,91,87,78,29.91,29.63,14,5,14,0.00
2013-1-11,22.1,15.1,9.9,19.6,12.3,6.9,90,89,87,29.76,29.63,24,10,24,0.00
2013-3-9,33.3,25.2,20.7,23.7,19.6,0.0,86,80,67,30.08,29.89,50,6,50,8.08
2013-3-10,23.8,13.8,3.4,16.4,8.5,-1.0,87,79,67,30.29,30.08,10,4,10,0.00
2013-3-11,31.3,16.1,2.3,17.9,8.8,-2.7,84,73,53,30.11,29.84,8,2,8,0.00
2013-3-12,21.2,14.3,-1.8,15.9,9.4,-7.0,90,81,74,30.31,29.93,12,4,12,0.00
2013-3-13,20.5,6.6,-10.4,14.4,1.1,-14.9,84,78,66,30.32,30.05,12,4,12,0.00
2013-3-14,28.6,20.5,12.2,21.5,15.0,6.1,88,79,66,30.21,30.00,14,5,14,0.00
2013-3-15,12.1,5.7,-4.5,5.8,-1.3,-10.1,81,72,54,30.25,30.18,19,8,19,0.00
2013-3-16,10.4,-0.5,-14.0,3.4,-6.8,-20.1,85,74,61,30.31,30.18,12,3,12,0.00
2013-3-17,15.5,2.8,-17.3,12.4,-3.3,-23.6,88,75,62,30.30,29.72,22,6,22,0.00
2013-3-18,16.6,13.2,-0.4,14.2,9.0,-5.4,90,83,76,29.97,29.62,17,7,17,0.00
2013-3-19,16.6,1.9,-11.0,5.5,-5.3,-16.2,80,71,60,30.31,29.97,16,6,16,0.02
2013-3-20,18.0,2.6,-9.4,7.9,-4.2,-14.4,83,73,62,30.35,30.20,17,5,17,0.00
2013-3-21,21.6,4.1,-9.9,12.0,-2.2,-15.4,82,75,63,30.20,30.14,5,1,5,0.01
2013-3-22,28.6,7.5,-7.7,18.7,1.5,-12.0,86,77,65,30.16,30.12,5,2,5,0.00
2013-3-23,31.3,15.8,-2.2,21.9,10.0,-6.8,84,78,66,30.23,30.15,8,2,8,0.00
2013-3-24,34.6,24.6,18.0,24.9,18.9,14.2,86,79,64,30.30,30.21,8,3,8,0.00
2013-3-25,30.4,20.8,5.8,22.0,15.3,1.8,87,79,69,30.37,30.30,13,3,13,0.00
2013-3-26,34.6,13.4,-2.5,23.5,7.2,-6.4,86,77,60,30.33,30.28,5,2,5,0.00
2013-3-27,28.3,11.6,-4.3,20.2,5.7,-9.1,83,77,67,30.35,30.29,4,1,4,0.00
2013-3-28,42.3,21.0,1.3,27.8,13.9,-2.9,91,75,53,30.30,30.21,6,1,6,0.00
2013-3-29,38.5,26.2,15.8,30.3,21.9,13.4,91,84,69,30.22,29.96,8,2,8,0.00
2013-3-30,42.7,29.4,16.9,32.5,23.9,14.2,91,80,65,29.96,29.85,20,3,20,0.00
2013-3-31,29.5,19.9,7.6,26.7,13.3,2.2,91,75,64,30.22,29.89,15,5,15,0.00
2013-4-1,32.2,13.3,-3.1,22.3,7.1,-7.5,85,76,63,30.28,30.22,10,3,10,0.00
2013-4-2,31.1,16.5,7.0,13.9,7.7,0.9,84,69,43,30.39,30.22,9,2,9,0.00
2013-4-3,44.5,27.4,11.0,35.1,21.3,4.8,88,78,68,30.27,29.83,25,7,25,0.00
2013-4-4,31.0,23.9,13.3,24.1,16.9,8.0,87,75,62,30.30,29.99,9,4,10,0.00
2013-4-5,36.9,22.1,2.7,26.7,15.2,-1.5,91,75,54,30.28,29.87,19,5,19,0.00
2013-4-6,38.5,33.3,29.0,31.4,28.6,26.1,92,83,72,29.88,29.76,13,5,13,0.05
2013-4-7,33.8,28.4,21.6,26.2,22.1,17.6,85,77,56,29.95,29.88,17,6,17,0.03
2013-4-8,23.4,18.4,6.1,17.9,11.2,-0.3,86,73,65,30.33,29.94,17,6,17,0.00
2013-4-9,34.9,15.9,-1.6,24.0,8.7,-6.8,84,74,56,30.45,30.33,8,3,8,0.00
2013-4-10,36.4,20.6,4.1,23.3,12.4,-1.8,85,71,50,30.38,30.11,8,2,8,0.00
2013-4-11,45.0,29.6,14.9,29.4,20.0,8.4,80,68,52,30.12,30.00,13,5,13,0.00
2013-4-12,38.5,33.9,28.8,31.3,26.0,22.6,89,73,55,30.01,29.92,13,4,13,0.01
2013-4-13,42.1,29.4,16.6,30.2,21.9,13.4,88,74,56,29.97,29.93,11,2,11,0.00
2013-4-14,38.9,29.6,17.5,28.7,22.6,12.5,82,75,62,29.98,29.79,21,8,21,0.00
2013-4-15,34.2,32.0,29.9,31.7,29.6,27.1,95,91,77,30.01,29.72,28,13,28,0.02
2013-4-16,37.6,31.7,23.9,29.6,23.2,18.0,94,72,54,30.40,30.00,13,4,13,0.00
2013-4-17,41.6,32.7,26.3,28.6,24.9,21.4,85,74,54,30.39,30.17,8,2,8,0.00
2013-4-18,40.0,31.9,25.6,29.2,23.9,20.6,87,73,54,30.18,29.96,8,3,8,0.00
2013-4-19,35.1,28.3,16.9,24.0,18.8,10.1,77,68,54,30.09,29.95,18,7,18,0.00
2013-4-20,42.1,27.1,11.2,25.6,18.2,6.5,86,70,48,30.20,30.09,8,3,8,0.00
2013-4-21,46.8,34.9,29.7,36.8,29.8,24.7,91,82,62,30.11,29.89,17,8,17,0.01
2013-4-22,38.9,29.8,21.6,27.0,21.9,16.2,86,73,56,30.35,30.10,16,6,16,0.00
2013-4-23,45.4,29.5,14.8,32.4,22.0,10.6,87,74,56,30.30,29.94,9,3,9,0.00
2013-4-24,44.5,32.8,24.1,34.4,27.1,19.3,89,80,65,30.00,29.81,15,4,15,0.00
2013-4-25,43.7,32.8,20.7,34.0,27.5,18.2,92,81,64,30.02,29.85,16,5,16,0.00
2013-4-26,58.9,42.7,32.9,45.3,36.1,30.3,92,78,57,29.98,29.81,9,4,9,0.00
2013-4-27,56.3,45.1,35.6,46.3,38.3,32.1,88,78,63,29.94,29.60,13,4,13,0.00
2013-4-28,60.5,47.0,36.0,45.2,37.3,31.2,89,71,39,29.84,29.50,28,8,28,0.00
2013-4-29,51.1,42.2,31.3,45.5,36.8,27.6,90,81,64,29.84,29.50,16,4,16,0.13
2013-4-30,42.8,36.4,28.6,41.5,34.5,25.5,95,93,88,29.97,29.38,27,10,27,0.35
2013-5-1,33.7,29.9,26.5,28.0,25.1,22.2,89,82,74,30.63,29.97,15,6,15,0.01
2013-5-2,41.9,31.9,24.8,30.3,25.2,21.8,89,77,61,30.72,30.56,9,3,9,0.00
2013-5-3,51.7,39.0,27.0,37.4,31.1,23.6,89,74,54,30.56,30.33,8,3,8,0.00
2013-5-4,57.4,44.7,31.1,38.5,32.2,27.2,87,64,38,30.37,30.28,14,4,14,0.00
2013-5-5,70.4,51.9,33.8,44.3,38.0,29.7,86,62,36,30.30,30.07,10,3,10,0.00
2013-5-6,81.7,61.5,39.4,48.8,42.4,34.6,84,55,21,30.07,29.93,14,5,14,0.00
2013-5-7,81.0,63.0,42.7,51.2,45.5,37.3,83,57,32,29.96,29.85,15,4,15,0.00
2013-5-8,55.8,48.4,37.6,45.8,32.9,26.8,73,57,34,30.28,29.91,23,8,23,0.00
2013-5-9,60.1,45.0,30.6,28.8,25.3,20.9,76,50,25,30.35,30.20,18,6,18,0.00
2013-5-10,52.4,43.7,33.5,43.7,30.9,21.6,83,61,39,30.20,29.94,23,7,23,0.09
2013-5-11,49.7,39.0,28.3,30.5,25.4,17.0,83,60,38,30.33,30.17,17,6,17,0.00
2013-5-12,66.6,47.3,23.4,31.4,23.3,15.5,75,43,20,30.27,29.91,14,3,14,0.00
2013-5-13,82.6,64.1,47.9,46.3,35.6,25.6,48,36,23,29.92,29.50,22,8,22,0.00
2013-5-14,79.0,63.7,48.1,57.3,46.4,36.8,77,54,31,29.71,29.35,34,9,34,0.00
2013-5-15,74.9,59.5,41.4,49.4,40.1,33.4,82,52,27,29.91,29.71,17,5,17,0.00
2013-5-16,77.6,59.4,41.0,42.3,34.6,25.5,61,41,25,30.00,29.91,16,4,16,0.00
2013-5-17,68.8,56.0,42.8,54.0,46.7,33.0,86,72,45,30.02,29.91,24,7,24,0.13
2013-5-18,63.4,57.0,49.7,55.7,51.0,45.4,92,81,70,29.92,29.88,10,4,10,0.23
2013-5-19,61.2,55.9,50.4,56.1,52.8,48.7,94,89,80,29.93,29.83,26,11,26,0.33
2013-5-20,57.8,53.8,49.3,52.4,48.8,41.1,91,83,69,29.93,29.80,35,17,35,0.23
2013-5-21,72.4,57.4,47.3,42.1,36.3,25.5,75,49,18,30.00,29.91,32,12,32,0.00
2013-5-22,71.8,59.4,43.6,49.7,39.6,32.1,69,49,34,30.24,29.99,23,9,23,0.00
2013-5-23,74.5,54.0,37.6,35.3,31.6,26.4,72,46,21,30.40,30.24,14,6,14,0.00
2013-5-24,76.3,57.3,36.9,47.0,37.6,26.9,73,51,25,30.30,30.12,26,5,26,0.01
2013-5-25,67.0,58.0,52.0,56.0,49.8,43.5,92,75,66,30.19,30.11,26,10,26,0.02
2013-5-26,76.3,62.8,53.1,55.5,49.6,47.1,81,63,42,30.16,30.03,21,7,21,0.00
2013-5-27,78.7,65.0,54.5,56.1,50.6,45.7,74,61,43,30.03,29.75,25,4,25,0.00
2013-5-28,73.6,62.1,55.1,62.5,55.8,50.2,92,80,64,29.75,29.55,20,5,20,0.12
2013-5-29,67.5,59.2,50.2,59.3,54.6,48.0,94,85,74,29.76,29.57,12,4,12,0.01
2013-5-30,58.7,56.6,52.9,56.9,54.5,50.6,95,93,89,29.75,29.58,29,15,29,0.41
2013-5-31,54.4,51.9,49.1,53.0,49.7,44.2,96,92,83,29.85,29.50,32,18,32,1.12
2013-6-1,60.1,51.6,43.6,46.7,43.3,38.5,87,74,52,30.12,29.85,17,6,17,0.00
2013-6-2,69.1,51.9,36.2,44.9,37.2,32.3,90,61,29,30.15,30.05,11,2,11,0.00
2013-6-3,69.5,55.7,37.3,45.9,37.8,32.9,89,54,29,30.11,30.02,15,4,15,0.00
2013-6-4,76.3,61.6,47.5,51.6,42.1,35.6,76,51,29,30.12,30.05,25,6,25,0.00
2013-6-5,84.4,63.5,44.6,49.3,41.7,35.4,72,47,24,30.13,30.05,14,4,14,0.00
2013-6-6,81.4,66.4,47.3,55.1,46.3,41.8,85,52,28,30.07,29.96,10,3,10,0.00
2013-6-7,81.2,66.0,53.1,59.7,52.0,44.2,85,63,39,29.97,29.82,26,6,26,0.13
2013-6-8,83.7,65.6,48.1,58.4,50.2,43.8,89,61,33,29.86,29.82,24,8,24,0.00
2013-6-9,74.7,62.4,53.1,62.0,53.9,43.6,86,74,59,29.90,29.82,12,4,12,0.06
2013-6-10,82.3,64.7,52.2,63.0,54.6,44.9,89,72,42,29.84,29.69,13,4,13,0.00
2013-6-11,78.5,64.3,47.3,57.9,49.1,43.9,89,61,37,29.92,29.81,13,3,13,0.00
2013-6-12,74.5,64.4,50.2,56.1,50.8,43.7,81,63,45,30.11,29.92,16,3,16,0.00
2013-6-13,88.9,68.2,49.0,60.0,51.5,41.1,94,59,29,30.17,30.02,19,4,19,0.00
2013-6-14,80.5,66.1,55.4,67.2,55.9,40.4,90,70,54,30.02,29.73,29,7,29,0.09
2013-6-15,82.4,66.4,52.2,62.2,52.3,47.3,91,64,30,29.80,29.71,19,4,19,0.03
2013-6-16,78.1,64.9,50.0,60.7,54.1,46.6,92,70,42,29.89,29.74,11,3,11,0.03
2013-6-17,77.6,64.9,54.5,56.9,49.3,39.3,93,62,30,30.07,29.89,15,5,15,0.01
2013-6-18,88.9,68.7,46.8,60.1,51.1,41.1,82,56,31,30.09,29.91,8,2,8,0.00
2013-6-19,85.9,71.2,51.8,60.9,53.2,45.8,83,56,32,29.95,29.89,16,4,16,0.00
2013-6-20,80.8,69.8,57.4,66.7,59.4,53.2,89,71,56,29.95,29.86,20,7,20,0.40
2013-10-1,64.1,53.1,32.0,45.5,41.2,0.0,83,65,46,29.81,29.50,50,7,50,21.90
2013-10-2,64.3,48.1,34.9,46.1,38.2,30.6,89,70,46,29.96,29.80,8,2,8,0.00
2013-10-3,56.5,46.1,37.8,44.8,39.0,33.6,93,77,55,30.27,29.95,14,4,14,0.00
2013-10-4,47.9,40.8,34.9,37.2,33.5,31.2,89,76,59,30.39,30.27,20,6,20,0.00
2013-10-5,53.8,41.6,32.4,37.2,32.9,26.8,91,73,47,30.29,29.99,20,7,20,0.00
2013-10-6,69.5,44.5,26.6,43.0,32.6,23.2,90,66,36,29.99,29.78,17,3,17,0.00
2013-10-7,64.3,46.8,31.0,46.2,37.7,28.1,93,73,46,29.94,29.68,11,3,11,0.00
2013-10-8,72.2,55.4,45.4,51.9,44.2,38.0,85,67,44,29.73,29.55,12,4,12,0.00
2013-10-9,69.5,51.6,39.1,49.3,39.8,33.9,85,66,40,30.00,29.73,8,2,8,0.00
2013-10-10,71.3,53.7,38.2,52.1,43.9,34.4,91,71,46,30.00,29.71,17,4,17,0.00
2013-10-11,70.9,60.0,54.2,58.3,54.0,48.5,90,81,63,29.72,29.28,23,7,23,0.08
2013-10-12,58.5,47.9,33.5,55.4,43.4,29.5,92,84,68,30.09,29.26,26,10,26,0.10
2013-10-13,56.5,40.4,29.2,40.9,31.4,25.2,92,73,41,30.34,30.09,14,3,14,0.00
2013-10-14,48.6,39.6,26.5,40.0,33.3,22.3,89,78,68,30.35,30.25,6,2,6,0.00
2013-10-15,46.6,39.8,32.0,38.2,33.3,28.3,92,78,57,30.25,30.04,11,4,11,0.00
2013-10-20,38.5,33.8,25.4,32.0,25.0,21.0,100,71,57,32.13,29.83,21,8,21,23.50
2013-10-21,40.7,36.0,32.4,31.3,29.2,27.4,84,76,67,29.99,29.92,12,4,12,0.00
2013-10-22,38.9,32.6,24.8,29.9,26.0,18.9,92,77,58,30.07,29.99,16,4,16,0.00
2013-10-23,40.7,31.6,21.1,34.4,27.2,17.0,93,84,70,30.13,30.03,15,3,15,0.01
2013-10-24,43.6,33.4,25.9,36.2,28.6,21.5,93,83,61,30.23,30.13,16,4,16,0.05
2013-10-25,54.9,38.6,25.6,41.6,31.4,22.5,88,76,55,30.13,29.64,28,8,28,0.00
2013-10-26,43.6,39.1,35.6,33.0,30.5,27.8,87,71,61,30.15,29.72,16,6,16,0.00
2013-10-27,38.9,32.8,26.1,30.6,24.2,17.6,85,71,58,30.47,29.67,25,8,25,0.00
2013-10-28,30.2,24.7,14.8,18.9,16.3,9.3,83,70,59,30.63,30.47,10,2,10,0.00
2013-10-29,37.1,21.1,10.4,21.5,13.2,4.6,85,72,51,30.48,30.19,9,2,9,0.00
2013-11-8,68.9,36.9,33.5,68.9,32.7,28.8,100,85,64,29.84,29.64,16,8,17,23.65
2013-11-9,36.0,33.6,30.2,33.8,31.0,25.1,95,90,79,30.20,29.66,13,5,13,0.06
2013-11-10,30.1,22.3,12.6,26.7,16.5,5.0,89,78,70,30.40,30.04,16,7,16,0.00
2013-11-11,16.9,10.3,4.0,10.1,4.3,-1.9,83,76,66,30.67,30.41,12,4,12,0.00
2013-11-12,39.6,23.5,5.8,28.8,17.3,1.0,85,77,65,30.60,29.94,11,6,11,0.03
2013-11-13,52.9,37.3,27.9,35.6,28.0,22.9,87,72,36,29.92,29.65,15,6,15,0.00
2013-11-14,39.2,34.6,31.0,32.0,30.5,28.1,93,85,71,29.81,29.68,5,2,5,0.01
2013-11-15,50.9,35.7,26.6,40.0,31.0,24.1,92,84,62,29.70,29.32,13,6,13,0.00
2013-11-16,38.5,31.3,22.1,35.0,28.8,19.4,95,90,86,29.41,29.29,16,6,16,0.04
2013-11-23,32.0,5.8,1.8,32.0,1.0,-3.7,100,80,77,31.20,30.43,9,5,9,20.93
2013-11-24,34.6,20.5,8.6,30.3,16.1,3.7,88,83,79,30.38,29.61,19,9,19,0.00
2013-11-25,34.2,25.6,14.0,29.1,20.2,7.8,89,80,72,30.16,29.70,19,10,19,0.00
2013-11-26,15.8,9.9,0.7,10.7,5.1,-3.5,84,80,76,30.45,30.17,13,5,13,0.00
2013-11-27,18.5,13.3,1.8,14.3,9.8,-1.9,89,86,82,30.35,30.00,12,4,12,0.00
2013-11-28,18.2,7.3,-6.1,12.5,3.1,-10.6,89,83,73,30.45,30.16,5,1,5,0.00
2013-11-29,24.1,15.5,-0.9,18.7,11.3,-4.6,87,83,76,30.42,29.98,9,4,9,0.00
2013-11-30,24.7,22.7,21.2,19.9,18.5,17.4,87,84,79,30.21,29.99,6,1,6,0.00
2013-12-1,27.9,22.9,20.2,21.9,19.2,17.5,89,85,77,30.20,29.93,11,3,11,0.00
2013-12-2,21.8,20.0,16.9,18.3,16.8,13.7,90,87,86,29.96,29.84,18,11,18,0.00
2013-12-3,17.6,15.2,10.3,13.8,11.5,6.7,88,85,80,30.09,29.96,16,9,16,0.00
2013-12-4,15.5,12.4,9.0,12.1,9.5,5.9,89,88,86,30.08,29.83,11,7,11,0.00
2013-12-5,10.3,4.5,-4.0,7.5,0.9,-8.4,88,85,81,30.23,29.81,14,8,14,0.00
2013-12-6,-1.1,-6.3,-11.7,-6.4,-11.0,-16.1,83,80,77,30.50,30.23,10,5,10,0.00
2013-12-7,-8.5,-13.3,-18.5,-14.2,-18.7,-23.5,80,76,70,30.50,30.29,9,4,9,0.00
2013-12-8,-1.1,-9.9,-16.7,-7.7,-15.3,-22.0,81,76,73,30.29,29.96,10,5,10,0.00
2013-12-9,-4.0,-11.3,-18.4,-10.4,-16.7,-23.4,79,76,71,29.96,29.79,7,4,7,0.00
2013-12-10,-1.3,-8.8,-17.1,-7.6,-13.9,-22.1,81,78,74,30.14,29.84,10,3,10,0.00
2013-12-14,70.5,-12.9,-22.5,70.5,-18.9,-27.9,100,74,69,30.37,30.22,4,1,4,23.80
2013-12-15,32.0,-19.9,-25.6,0.0,-25.1,-31.1,83,76,71,30.26,29.86,46,1,46,22.78
2013-12-16,1.4,-0.3,-1.6,-2.0,-4.0,-5.5,85,84,83,29.87,29.73,15,10,15,0.00
2013-12-21,32.0,-13.2,-16.4,32.0,-18.5,-21.7,100,76,75,30.80,30.25,7,2,7,20.45
2013-12-22,-8.1,-14.1,-19.3,-14.9,-19.9,-25.0,77,74,69,30.52,30.27,6,2,6,0.00
2013-12-23,-8.8,-16.7,-24.3,-14.2,-22.2,-29.9,80,75,71,30.57,30.17,11,3,11,0.00
2013-12-24,14.8,5.2,-9.5,12.1,1.9,-14.0,89,86,80,30.17,29.88,19,6,19,0.00
2013-12-25,15.3,9.9,1.6,12.6,5.8,-2.9,89,83,74,30.15,29.96,8,2,8,0.00
2013-12-26,19.4,10.6,3.1,16.7,6.5,-1.4,89,83,77,30.08,29.84,11,4,11,0.00
2013-12-27,30.2,22.9,10.4,26.5,19.5,7.1,91,87,81,29.99,29.62,16,6,16,0.00
2013-12-28,10.6,-3.6,-20.9,7.1,-7.6,-26.1,86,83,77,30.51,29.92,24,9,24,0.00
2013-12-29,-9.0,-19.8,-26.1,-13.2,-24.6,-31.1,81,78,76,30.49,30.14,6,2,6,0.00
2013-12-30,-12.4,-20.7,-25.6,-17.4,-25.6,-30.6,80,77,76,30.30,30.14,7,2,7,0.00
2013-12-31,32.0,-25.3,-31.1,32.0,-30.4,-36.5,77,75,74,30.45,30.20,7,2,7,0.00
2014-1-1,-8.6,-18.1,-23.4,-13.6,-23.1,-28.5,78,77,76,30.52,30.45,4,2,4,0.00
2014-1-2,-5.9,-16.3,-24.8,-10.0,-21.2,-29.9,82,78,75,30.46,29.93,12,4,12,0.00